createdAt,value
2022-09-18T00:00:50.995Z,1016.655212
2022-09-18T00:01:51.075Z,1016.628296
2022-09-18T00:02:45.310Z,1016.644165
2022-09-18T00:03:45.424Z,1016.722046
2022-09-18T00:04:51.072Z,1016.671082
2022-09-18T00:05:49.321Z,1016.711914
2022-09-18T00:06:52.728Z,1016.650818
2022-09-18T00:07:48.052Z,1016.68512
2022-09-18T00:09:48.269Z,1016.754944
2022-09-18T00:10:44.167Z,1016.754944
2022-09-18T00:11:45.844Z,1016.639771
2022-09-18T00:12:41.505Z,1016.735779
2022-09-18T00:13:43.887Z,1016.735779
2022-09-18T00:14:40.309Z,1016.682129
2022-09-18T00:15:44.641Z,1016.778564
2022-09-18T00:16:47.147Z,1016.743896
2022-09-18T00:17:47.635Z,1016.650818
2022-09-18T00:18:49.372Z,1016.63147
2022-09-18T00:21:12.210Z,1016.63147
2022-09-18T00:21:52.895Z,1016.652405
2022-09-18T00:22:54.835Z,1016.584656
2022-09-18T00:24:51.980Z,1016.708008
2022-09-18T00:25:57.180Z,1016.718994
2022-09-18T00:26:55.705Z,1016.711182
2022-09-18T00:27:57.661Z,1016.724915
2022-09-18T00:29:53.502Z,1016.644165
2022-09-18T00:30:55.847Z,1016.644165
2022-09-18T00:31:55.180Z,1016.609558
2022-09-18T00:32:57.403Z,1016.620544
2022-09-18T00:34:53.590Z,1016.636475
2022-09-18T00:35:52.287Z,1016.585999
2022-09-18T00:36:49.068Z,1016.674316
2022-09-18T00:37:53.882Z,1016.658264
2022-09-18T00:39:50.358Z,1016.609558
2022-09-18T00:40:48.060Z,1016.625427
2022-09-18T00:41:49.151Z,1016.579651
2022-09-18T00:42:51.155Z,1016.536804
2022-09-18T00:43:49.305Z,1016.568604
2022-09-18T00:44:52.335Z,1016.636475
2022-09-18T00:45:49.482Z,1016.650818
2022-09-18T00:46:49.289Z,1016.592041
2022-09-18T00:47:51.244Z,1016.699524
2022-09-18T00:49:43.817Z,1016.615479
2022-09-18T00:50:48.638Z,1016.642334
2022-09-18T00:51:45.007Z,1016.658264
2022-09-18T00:52:48.006Z,1016.620544
2022-09-18T00:53:40.535Z,1016.617371
2022-09-18T00:55:37.763Z,1016.652405
2022-09-18T00:56:37.506Z,1016.706177
2022-09-18T00:57:33.588Z,1016.617371
2022-09-18T00:58:59.325Z,1016.660156
2022-09-18T01:00:43.877Z,1016.611572
2022-09-18T01:00:52.902Z,1016.611572
2022-09-18T01:01:49.489Z,1016.659363
2022-09-18T01:02:51.231Z,1016.723938
2022-09-18T01:03:50.512Z,1016.659363
2022-09-18T01:04:53.595Z,1016.665283
2022-09-18T01:05:46.301Z,1016.754028
2022-09-18T01:06:48.981Z,1016.684265
2022-09-18T01:07:46.942Z,1016.722046
2022-09-18T01:08:48.287Z,1016.740784
2022-09-18T01:09:51.089Z,1016.671082
2022-09-18T01:10:53.143Z,1016.701172
2022-09-18T01:11:48.467Z,1016.639771
2022-09-18T01:12:48.356Z,1016.696045
2022-09-18T01:13:51.155Z,1016.666687
2022-09-18T01:14:57.286Z,1016.68512
2022-09-18T01:15:57.588Z,1016.704468
2022-09-18T01:16:53.749Z,1016.781738
2022-09-18T01:17:56.812Z,1016.711914
2022-09-18T01:19:56.085Z,1016.708984
2022-09-18T01:20:49.129Z,1016.708984
2022-09-18T01:21:52.288Z,1016.743896
2022-09-18T01:22:48.650Z,1016.674316
2022-09-18T01:24:44.339Z,1016.722046
2022-09-18T01:25:43.155Z,1016.708984
2022-09-18T01:26:43.077Z,1016.728027
2022-09-18T01:27:43.416Z,1016.704468
2022-09-18T01:28:48.370Z,1016.747253
2022-09-18T01:30:41.602Z,1016.717041
2022-09-18T01:31:37.957Z,1016.682129
2022-09-18T01:32:41.023Z,1016.693481
2022-09-18T01:34:04.778Z,1016.671082
2022-09-18T01:34:47.931Z,1016.622375
2022-09-18T01:35:46.916Z,1016.627502
2022-09-18T01:36:48.624Z,1016.646362
2022-09-18T01:37:45.733Z,1016.646362
2022-09-18T01:38:54.707Z,1016.657349
2022-09-18T01:39:52.708Z,1016.587708
2022-09-18T01:40:48.403Z,1016.652405
2022-09-18T01:41:54.133Z,1016.663391
2022-09-18T01:42:52.105Z,1016.612915
2022-09-18T01:43:53.700Z,1016.559204
2022-09-18T01:44:52.919Z,1016.550781
2022-09-18T01:45:53.287Z,1016.604553
2022-09-18T01:46:52.522Z,1016.561646
2022-09-18T01:47:52.577Z,1016.561646
2022-09-18T01:48:48.944Z,1016.585999
2022-09-18T01:49:51.530Z,1016.570129
2022-09-18T01:50:46.717Z,1016.577637
2022-09-18T01:51:52.743Z,1016.539978
2022-09-18T01:52:48.331Z,1016.497131
2022-09-18T01:54:55.862Z,1016.478638
2022-09-18T01:55:51.616Z,1016.470276
2022-09-18T01:56:52.827Z,1016.467163
2022-09-18T01:57:49.743Z,1016.547791
2022-09-18T01:59:49.230Z,1016.536804
2022-09-18T02:00:50.231Z,1016.529053
2022-09-18T02:01:48.446Z,1016.410522
2022-09-18T02:02:53.913Z,1016.448425
2022-09-18T02:04:53.683Z,1016.49408
2022-09-18T02:06:39.617Z,1016.556702
2022-09-18T02:07:20.021Z,1016.445007
2022-09-18T02:08:18.933Z,1016.36676
2022-09-18T02:10:20.400Z,1016.385254
2022-09-18T02:11:19.387Z,1016.399658
2022-09-18T02:12:13.800Z,1016.405518
2022-09-18T02:13:12.890Z,1016.35498
2022-09-18T02:14:09.907Z,1016.454285
2022-09-18T02:15:12.477Z,1016.414612
2022-09-18T02:16:08.968Z,1016.455261
2022-09-18T02:17:17.569Z,1016.450378
2022-09-18T02:18:10.677Z,1016.388611
2022-09-18T02:19:12.730Z,1016.439331
2022-09-18T02:20:17.732Z,1016.450256
2022-09-18T02:21:17.230Z,1016.466248
2022-09-18T02:22:12.678Z,1016.522949
2022-09-18T02:23:16.360Z,1016.461182
2022-09-18T02:25:11.006Z,1016.49115
2022-09-18T02:26:08.966Z,1016.509949
2022-09-18T02:27:10.781Z,1016.486206
2022-09-18T02:28:14.189Z,1016.502136
2022-09-18T02:29:23.683Z,1016.50708
2022-09-18T02:30:15.386Z,1016.448425
2022-09-18T02:31:20.166Z,1016.413513
2022-09-18T02:32:22.469Z,1016.378784
2022-09-18T02:33:21.458Z,1016.279114
2022-09-18T02:34:20.484Z,1016.252258
2022-09-18T02:35:15.220Z,1016.274597
2022-09-18T02:36:17.078Z,1016.320007
2022-09-18T02:37:16.134Z,1016.282104
2022-09-18T02:38:15.827Z,1016.260376
2022-09-18T02:40:16.866Z,1016.232605
2022-09-18T02:41:12.177Z,1016.240295
2022-09-18T02:42:15.432Z,1016.286255
2022-09-18T02:43:10.673Z,1016.278198
2022-09-18T02:44:11.567Z,1016.309998
2022-09-18T02:45:08.003Z,1016.406494
2022-09-18T02:46:11.520Z,1016.374695
2022-09-18T02:47:07.696Z,1016.482178
2022-09-18T02:48:12.128Z,1016.385681
2022-09-18T02:50:03.550Z,1016.336853
2022-09-18T02:50:57.896Z,1016.22937
2022-09-18T02:52:00.589Z,1016.256226
2022-09-18T02:53:04.097Z,1016.213379
2022-09-18T02:54:58.621Z,1016.256226
2022-09-18T02:56:44.591Z,1016.306213
2022-09-18T02:57:23.925Z,1016.240051
2022-09-18T02:58:25.313Z,1016.260803
2022-09-18T03:00:24.692Z,1016.271851
2022-09-18T03:01:25.644Z,1016.35083
2022-09-18T03:02:25.288Z,1016.348511
2022-09-18T03:03:26.835Z,1016.306213
2022-09-18T03:05:22.261Z,1016.290344
2022-09-18T03:06:16.558Z,1016.231689
2022-09-18T03:07:23.400Z,1016.199707
2022-09-18T03:08:18.797Z,1016.183777
2022-09-18T03:10:15.715Z,1016.363647
2022-09-18T03:11:16.780Z,1016.31311
2022-09-18T03:12:14.786Z,1016.14386
2022-09-18T03:13:11.371Z,1016.162781
2022-09-18T03:15:09.649Z,1016.197571
2022-09-18T03:16:12.558Z,1016.16571
2022-09-18T03:17:07.973Z,1016.170654
2022-09-18T03:18:10.725Z,1016.170654
2022-09-18T03:20:04.906Z,1016.237488
2022-09-18T03:21:01.925Z,1016.22937
2022-09-18T03:22:01.026Z,1016.186584
2022-09-18T03:22:58.870Z,1016.109009
2022-09-18T03:24:53.772Z,1016.14386
2022-09-18T03:26:02.919Z,1016.14386
2022-09-18T03:27:36.057Z,1016.218079
2022-09-18T03:29:54.859Z,1016.101318
2022-09-18T03:30:35.480Z,1016.069885
2022-09-18T03:31:33.793Z,1016.016113
2022-09-18T03:32:32.913Z,1016.140686
2022-09-18T03:33:28.049Z,1016.027832
2022-09-18T03:34:28.113Z,1016.032043
2022-09-18T03:35:29.833Z,1016.06842
2022-09-18T03:36:23.562Z,1016.044128
2022-09-18T03:37:23.384Z,1016.177002
2022-09-18T03:38:17.083Z,1016.093933
2022-09-18T03:39:18.675Z,1016.130249
2022-09-18T03:40:12.794Z,1016.128479
2022-09-18T03:41:11.725Z,1016.131226
2022-09-18T03:42:06.061Z,1016.110474
2022-09-18T03:43:07.596Z,1016.151367
2022-09-18T03:44:57.651Z,1016.165222
2022-09-18T03:45:58.521Z,1016.155884
2022-09-18T03:46:59.426Z,1016.196167
2022-09-18T03:47:50.319Z,1016.148438
2022-09-18T03:48:51.354Z,1016.114075
2022-09-18T03:50:42.992Z,1016.139893
2022-09-18T03:51:41.926Z,1016.23645
2022-09-18T03:52:36.390Z,1016.166809
2022-09-18T03:53:34.368Z,1016.218079
2022-09-18T03:54:28.728Z,1016.076233
2022-09-18T03:55:24.152Z,1016.167847
2022-09-18T03:56:25.126Z,1016.066284
2022-09-18T03:57:21.500Z,1016.084717
2022-09-18T03:58:29.048Z,1016.066284
2022-09-18T04:00:22.312Z,1016.018372
2022-09-18T04:01:21.694Z,1016.106689
2022-09-18T04:02:22.050Z,1016.059387
2022-09-18T04:03:13.340Z,1016.070374
2022-09-18T04:05:12.580Z,1016.15094
2022-09-18T04:06:12.257Z,1016.119019
2022-09-18T04:07:10.075Z,1016.172729
2022-09-18T04:08:33.629Z,1016.103088
2022-09-18T04:10:16.816Z,1016.142822
2022-09-18T04:11:15.461Z,1016.116028
2022-09-18T04:12:15.886Z,1016.049438
2022-09-18T04:13:11.279Z,1016.159729
2022-09-18T04:15:13.619Z,1016.125122
2022-09-18T04:16:14.773Z,1016.14386
2022-09-18T04:17:10.411Z,1016.09314
2022-09-18T04:18:15.699Z,1016.119995
2022-09-18T04:19:18.814Z,1016.055359
2022-09-18T04:20:21.174Z,1016.031311
2022-09-18T04:21:17.805Z,1016.020264
2022-09-18T04:22:18.118Z,1016.03949
2022-09-18T04:23:16.670Z,1016.034485
2022-09-18T04:24:18.510Z,1015.996643
2022-09-18T04:25:17.519Z,1016.06134
2022-09-18T04:26:23.221Z,1016.099182
2022-09-18T04:27:25.380Z,1016.083191
2022-09-18T04:28:19.545Z,1016.034485
2022-09-18T04:29:21.707Z,1016.085083
2022-09-18T04:30:16.117Z,1016.04718
2022-09-18T04:31:23.013Z,1016.009521
2022-09-18T04:32:13.684Z,1016.017639
2022-09-18T04:33:11.294Z,1016.003479
2022-09-18T04:35:19.319Z,1016.014526
2022-09-18T04:36:21.681Z,1015.982605
2022-09-18T04:37:19.355Z,1016.036377
2022-09-18T04:38:19.010Z,1016.055359
2022-09-18T04:40:18.084Z,1016.11792
2022-09-18T04:41:23.859Z,1015.959778
2022-09-18T04:42:17.573Z,1016.075684
2022-09-18T04:43:26.859Z,1016.075684
2022-09-18T04:45:20.361Z,1016.102478
2022-09-18T04:46:22.237Z,1016.151306
2022-09-18T04:48:08.280Z,1016.146912
2022-09-18T04:48:49.932Z,1016.119019
2022-09-18T04:49:50.089Z,1016.109985
2022-09-18T04:50:49.909Z,1016.105042
2022-09-18T04:51:45.263Z,1016.142822
2022-09-18T04:52:45.808Z,1016.084045
2022-09-18T04:53:40.974Z,1016.14386
2022-09-18T04:55:36.695Z,1016.050354
2022-09-18T04:56:35.589Z,1016.091125
2022-09-18T04:57:32.668Z,1016.048828
2022-09-18T04:58:33.574Z,1016.027954
2022-09-18T05:00:32.405Z,1016.111084
2022-09-18T05:01:30.569Z,1016.087524
2022-09-18T05:02:25.845Z,1015.969116
2022-09-18T05:03:31.482Z,1016.025452
2022-09-18T05:04:27.000Z,1016.025452
2022-09-18T05:05:28.674Z,1016.109436
2022-09-18T05:06:24.882Z,1016.047302
2022-09-18T05:07:27.178Z,1016.105957
2022-09-18T05:08:19.631Z,1016.103455
2022-09-18T05:09:24.053Z,1016.081604
2022-09-18T05:10:22.107Z,1016.008606
2022-09-18T05:11:27.965Z,1016.027954
2022-09-18T05:12:23.788Z,1015.954834
2022-09-18T05:13:27.273Z,1016.01947
2022-09-18T05:14:20.234Z,1015.93634
2022-09-18T05:15:24.370Z,1015.985168
2022-09-18T05:16:19.666Z,1015.995911
2022-09-18T05:17:23.874Z,1015.915405
2022-09-18T05:18:15.947Z,1015.96582
2022-09-18T05:19:17.894Z,1016.001099
2022-09-18T05:20:10.968Z,1016.01947
2022-09-18T05:21:11.177Z,1016.012024
2022-09-18T05:22:10.273Z,1015.985168
2022-09-18T05:23:08.442Z,1015.995911
2022-09-18T05:24:12.512Z,1015.987549
2022-09-18T05:25:07.539Z,1016.095032
2022-09-18T05:26:09.387Z,1015.991028
2022-09-18T05:27:03.338Z,1016.116943
2022-09-18T05:28:08.054Z,1016.143738
2022-09-18T05:30:26.008Z,1016.022827
2022-09-18T05:31:16.880Z,1016.081604
2022-09-18T05:32:18.928Z,1016.129333
2022-09-18T05:33:20.199Z,1016.078186
2022-09-18T05:35:19.267Z,1016.13031
2022-09-18T05:36:15.692Z,1016.195007
2022-09-18T05:37:19.080Z,1016.105957
2022-09-18T05:38:20.414Z,1016.158081
2022-09-18T05:39:17.947Z,1016.197571
2022-09-18T05:40:16.774Z,1016.136353
2022-09-18T05:41:13.448Z,1016.120483
2022-09-18T05:42:17.737Z,1016.101074
2022-09-18T05:43:15.903Z,1016.109436
2022-09-18T05:45:11.961Z,1016.205994
2022-09-18T05:46:12.424Z,1016.159729
2022-09-18T05:47:07.959Z,1016.159729
2022-09-18T05:48:09.863Z,1016.186646
2022-09-18T05:49:05.227Z,1016.159729
2022-09-18T05:50:05.603Z,1016.025452
2022-09-18T05:51:02.964Z,1016.055725
2022-09-18T05:52:02.747Z,1016.039734
2022-09-18T05:53:00.842Z,1016.109436
2022-09-18T05:54:58.412Z,1015.982666
2022-09-18T05:56:01.519Z,1016.033813
2022-09-18T05:56:54.339Z,1015.971741
2022-09-18T05:57:56.909Z,1016.025452
2022-09-18T05:58:51.151Z,1015.953186
2022-09-18T06:00:03.237Z,1016.068176
2022-09-18T06:00:58.789Z,1016.090027
2022-09-18T06:01:59.667Z,1016.136353
2022-09-18T06:02:54.627Z,1016.120483
2022-09-18T06:04:51.804Z,1016.055725
2022-09-18T06:05:54.239Z,1016.132813
2022-09-18T06:06:49.833Z,1016.052307
2022-09-18T06:07:49.671Z,1016.071655
2022-09-18T06:08:47.826Z,1015.964111
2022-09-18T06:09:51.927Z,1015.971741
2022-09-18T06:10:47.146Z,1015.953186
2022-09-18T06:11:49.563Z,1015.995911
2022-09-18T06:12:46.821Z,1016.030396
2022-09-18T06:13:50.045Z,1016.01947
2022-09-18T06:15:46.366Z,1016.037354
2022-09-18T06:17:33.331Z,1016.095032
2022-09-18T06:18:13.953Z,1016.034302
2022-09-18T06:20:14.115Z,1016.087036
2022-09-18T06:21:08.968Z,1016.093079
2022-09-18T06:22:09.369Z,1016.11499
2022-09-18T06:23:04.881Z,1016.093994
2022-09-18T06:24:05.606Z,1016.08905
2022-09-18T06:25:01.039Z,1016.145813
2022-09-18T06:26:00.341Z,1016.183777
2022-09-18T06:26:54.750Z,1016.090149
2022-09-18T06:27:56.793Z,1016.082214
2022-09-18T06:28:48.870Z,1016.143738
2022-09-18T06:29:48.311Z,1016.132874
2022-09-18T06:30:43.501Z,1016.121948
2022-09-18T06:31:43.394Z,1016.103088
2022-09-18T06:32:37.743Z,1016.145813
2022-09-18T06:33:38.222Z,1016.103088
2022-09-18T06:34:38.520Z,1016.115906
2022-09-18T06:34:38.972Z,1016.115906
2022-09-18T06:35:35.653Z,1016.051331
2022-09-18T06:36:31.926Z,1016.120911
2022-09-18T06:37:33.361Z,1016.093994
2022-09-18T06:38:27.574Z,1016.109985
2022-09-18T06:39:28.221Z,1016.079712
2022-09-18T06:40:24.798Z,1016.133423
2022-09-18T06:41:26.170Z,1016.174683
2022-09-18T06:42:21.364Z,1016.179688
2022-09-18T06:43:26.380Z,1016.144897
2022-09-18T06:44:18.197Z,1016.106567
2022-09-18T06:45:17.471Z,1016.118042
2022-09-18T06:46:13.006Z,1016.152771
2022-09-18T06:47:11.382Z,1016.206543
2022-09-18T06:48:09.524Z,1016.244263
2022-09-18T06:49:04.516Z,1016.298096
2022-09-18T06:50:07.388Z,1016.217468
2022-09-18T06:51:01.745Z,1016.236511
2022-09-18T06:52:03.575Z,1016.118042
2022-09-18T06:52:56.972Z,1016.133423
2022-09-18T06:53:58.134Z,1016.104065
2022-09-18T06:54:54.026Z,1016.100586
2022-09-18T06:55:57.683Z,1016.124939
2022-09-18T06:56:57.022Z,1016.135864
2022-09-18T06:57:49.054Z,1016.146851
2022-09-18T06:58:50.349Z,1016.119934
2022-09-18T07:00:44.993Z,1016.151733
2022-09-18T07:01:39.885Z,1016.170166
2022-09-18T07:03:15.733Z,1016.091064
2022-09-18T07:05:11.015Z,1016.065491
2022-09-18T07:05:47.569Z,1016.023132
2022-09-18T07:06:46.581Z,1016.149048
2022-09-18T07:07:47.163Z,1016.070984
2022-09-18T07:08:43.439Z,1016.112183
2022-09-18T07:10:42.612Z,1016.054626
2022-09-18T07:11:44.584Z,1016.125305
2022-09-18T07:12:43.505Z,1016.090637
2022-09-18T07:13:47.355Z,1016.104431
2022-09-18T07:15:42.994Z,1016.172302
2022-09-18T07:16:25.558Z,1016.059692
2022-09-18T07:17:24.385Z,1016.140442
2022-09-18T07:17:26.634Z,1016.140442
2022-09-18T07:18:21.809Z,1016.113525
2022-09-18T07:20:21.322Z,1016.018738
2022-09-18T07:21:14.922Z,1016.134338
2022-09-18T07:22:16.961Z,1016.048706
2022-09-18T07:23:15.030Z,1016.051636
2022-09-18T07:25:12.881Z,1016.108582
2022-09-18T07:26:15.207Z,1016.019836
2022-09-18T07:27:15.905Z,1016.012085
2022-09-18T07:28:17.782Z,1015.958252
2022-09-18T07:29:16.069Z,1015.955139
2022-09-18T07:30:17.290Z,1016.001099
2022-09-18T07:31:13.642Z,1015.99292
2022-09-18T07:32:18.087Z,1016.005981
2022-09-18T07:33:12.071Z,1016.004944
2022-09-18T07:35:09.778Z,1015.878357
2022-09-18T07:36:13.618Z,1015.993958
2022-09-18T07:37:11.121Z,1016.03186
2022-09-18T07:38:12.490Z,1015.957275
2022-09-18T07:40:10.500Z,1015.997864
2022-09-18T07:41:07.230Z,1016.07074
2022-09-18T07:42:10.792Z,1015.955139
2022-09-18T07:43:07.779Z,1016.028015
2022-09-18T07:44:07.900Z,1015.955139
2022-09-18T07:45:05.023Z,1015.947266
2022-09-18T07:46:07.065Z,1015.990051
2022-09-18T07:47:05.011Z,1015.917175
2022-09-18T07:48:05.626Z,1015.874512
2022-09-18T07:49:02.721Z,1015.914429
2022-09-18T07:50:04.561Z,1015.906311
2022-09-18T07:51:00.915Z,1015.841675
2022-09-18T07:52:02.031Z,1015.785034
2022-09-18T07:52:59.189Z,1015.854614
2022-09-18T07:54:58.053Z,1015.891418
2022-09-18T07:55:59.355Z,1015.818604
2022-09-18T07:57:22.798Z,1015.84552
2022-09-18T07:58:02.810Z,1015.871338
2022-09-18T07:59:00.427Z,1015.784668
2022-09-18T08:00:02.534Z,1015.864258
2022-09-18T08:00:57.906Z,1015.811829
2022-09-18T08:01:57.890Z,1015.765991
2022-09-18T08:02:54.619Z,1015.857605
2022-09-18T08:03:55.069Z,1015.857605
2022-09-18T08:05:51.161Z,1015.814819
2022-09-18T08:06:46.574Z,1015.907043
2022-09-18T08:07:46.972Z,1015.860779
2022-09-18T08:08:42.235Z,1015.841614
2022-09-18T08:09:46.128Z,1015.785034
2022-09-18T08:10:39.500Z,1015.860779
2022-09-18T08:11:42.784Z,1015.876648
2022-09-18T08:12:35.969Z,1015.835693
2022-09-18T08:13:36.073Z,1015.870605
2022-09-18T08:14:34.265Z,1015.829712
2022-09-18T08:15:29.649Z,1015.883484
2022-09-18T08:16:32.521Z,1015.821777
2022-09-18T08:17:27.913Z,1015.918457
2022-09-18T08:18:31.852Z,1015.805847
2022-09-18T08:20:27.675Z,1015.83783
2022-09-18T08:21:21.917Z,1015.834534
2022-09-18T08:22:19.163Z,1015.888367
2022-09-18T08:23:18.633Z,1015.842651
2022-09-18T08:24:13.813Z,1015.885437
2022-09-18T08:25:14.212Z,1015.839478
2022-09-18T08:26:09.589Z,1015.850525
2022-09-18T08:27:15.277Z,1015.893188
2022-09-18T08:28:08.906Z,1015.901306
2022-09-18T08:30:03.277Z,1016.043762
2022-09-18T08:31:02.243Z,1016.081604
2022-09-18T08:32:05.484Z,1016.022766
2022-09-18T08:32:09.841Z,1016.022766
2022-09-18T08:32:59.043Z,1016.038696
2022-09-18T08:35:00.016Z,1015.987061
2022-09-18T08:35:52.695Z,1015.825623
2022-09-18T08:36:55.667Z,1015.919067
2022-09-18T08:37:48.222Z,1015.953552
2022-09-18T08:38:46.580Z,1015.980408
2022-09-18T08:41:16.054Z,1015.966858
2022-09-18T08:41:55.823Z,1015.971802
2022-09-18T08:42:56.551Z,1015.86554
2022-09-18T08:43:51.859Z,1015.908508
2022-09-18T08:45:47.144Z,1015.943848
2022-09-18T08:46:45.832Z,1015.954651
2022-09-18T08:47:43.888Z,1015.946289
2022-09-18T08:48:40.071Z,1015.93396
2022-09-18T08:49:40.432Z,1015.941345
2022-09-18T08:50:38.582Z,1015.891113
2022-09-18T08:51:38.079Z,1015.909607
2022-09-18T08:52:31.459Z,1015.979309
2022-09-18T08:53:34.203Z,1016.006226
2022-09-18T08:54:26.651Z,1015.907043
2022-09-18T08:55:26.237Z,1015.914551
2022-09-18T08:56:22.946Z,1016.059937
2022-09-18T08:57:23.640Z,1015.920532
2022-09-18T08:58:18.716Z,1015.920532
2022-09-18T09:00:13.108Z,1015.883728
2022-09-18T09:01:13.122Z,1015.870239
2022-09-18T09:02:08.387Z,1015.881226
2022-09-18T09:03:08.058Z,1015.754272
2022-09-18T09:04:04.214Z,1015.817993
2022-09-18T09:05:04.735Z,1015.77887
2022-09-18T09:06:00.024Z,1015.761841
2022-09-18T09:07:02.785Z,1015.750793
2022-09-18T09:07:55.453Z,1015.731384
2022-09-18T09:08:57.868Z,1015.747375
2022-09-18T09:10:53.262Z,1015.774292
2022-09-18T09:12:55.457Z,1015.689758
2022-09-18T09:13:36.986Z,1015.626465
2022-09-18T09:14:55.993Z,1015.666321
2022-09-18T09:14:56.616Z,1015.666321
2022-09-18T09:14:57.266Z,1015.666321
2022-09-18T09:15:37.661Z,1015.566772
2022-09-18T09:16:33.786Z,1015.649292
2022-09-18T09:17:30.873Z,1015.600342
2022-09-18T09:18:31.848Z,1015.55957
2022-09-18T09:19:27.045Z,1015.527588
2022-09-18T09:20:26.940Z,1015.546509
2022-09-18T09:21:21.624Z,1015.576599
2022-09-18T09:22:21.370Z,1015.525635
2022-09-18T09:23:16.782Z,1015.555847
2022-09-18T09:25:12.251Z,1015.467957
2022-09-18T09:26:13.437Z,1015.594604
2022-09-18T09:27:08.697Z,1015.52478
2022-09-18T09:28:11.381Z,1015.555298
2022-09-18T09:28:16.512Z,1015.555298
2022-09-18T09:30:04.314Z,1015.40625
2022-09-18T09:31:06.323Z,1015.502869
2022-09-18T09:31:58.982Z,1015.507996
2022-09-18T09:33:02.348Z,1015.507996
2022-09-18T09:33:55.641Z,1015.588745
2022-09-18T09:35:50.853Z,1015.569702
2022-09-18T09:36:54.877Z,1015.521729
2022-09-18T09:37:49.041Z,1015.446106
2022-09-18T09:38:52.241Z,1015.494751
2022-09-18T09:40:45.624Z,1015.476013
2022-09-18T09:41:41.859Z,1015.572632
2022-09-18T09:42:42.447Z,1015.561829
2022-09-18T09:43:41.087Z,1015.510681
2022-09-18T09:45:40.981Z,1015.519958
2022-09-18T09:46:36.488Z,1015.534424
2022-09-18T09:47:41.389Z,1015.590881
2022-09-18T09:48:36.065Z,1015.601868
2022-09-18T09:51:15.557Z,1015.462036
2022-09-18T09:52:41.143Z,1015.448669
2022-09-18T09:53:18.004Z,1015.535645
2022-09-18T09:55:16.603Z,1015.506165
2022-09-18T09:56:14.769Z,1015.369324
2022-09-18T09:57:15.125Z,1015.387024
2022-09-18T09:58:11.669Z,1015.408997
2022-09-18T10:00:04.767Z,1015.434021
2022-09-18T10:01:04.126Z,1015.394409
2022-09-18T10:02:02.083Z,1015.459167
2022-09-18T10:02:57.797Z,1015.432312
2022-09-18T10:03:57.621Z,1015.515869
2022-09-18T10:04:52.010Z,1015.40033
2022-09-18T10:05:53.763Z,1015.460144
2022-09-18T10:06:51.003Z,1015.395203
2022-09-18T10:07:48.765Z,1015.425537
2022-09-18T10:08:48.872Z,1015.379333
2022-09-18T10:09:41.318Z,1015.440918
2022-09-18T10:10:43.142Z,1015.395203
2022-09-18T10:11:35.321Z,1015.336426
2022-09-18T10:12:42.228Z,1015.317993
2022-09-18T10:13:32.189Z,1015.371826
2022-09-18T10:14:26.731Z,1015.346558
2022-09-18T10:15:29.043Z,1015.41925
2022-09-18T10:16:21.590Z,1015.414124
2022-09-18T10:17:21.879Z,1015.40625
2022-09-18T10:18:17.274Z,1015.37439
2022-09-18T10:20:15.492Z,1015.37439
2022-09-18T10:21:09.888Z,1015.42334
2022-09-18T10:22:13.493Z,1015.439209
2022-09-18T10:23:05.559Z,1015.480591
2022-09-18T10:25:04.497Z,1015.588257
2022-09-18T10:26:04.122Z,1015.510071
2022-09-18T10:27:07.300Z,1015.505127
2022-09-18T10:27:59.988Z,1015.462341
2022-09-18T10:29:02.343Z,1015.623779
2022-09-18T10:29:54.224Z,1015.551453
2022-09-18T10:30:56.210Z,1015.5625
2022-09-18T10:31:49.444Z,1015.519775
2022-09-18T10:33:30.198Z,1015.431763
2022-09-18T10:35:48.656Z,1015.456177
2022-09-18T10:36:30.149Z,1015.519836
2022-09-18T10:37:28.264Z,1015.485291
2022-09-18T10:38:28.794Z,1015.469482
2022-09-18T10:40:25.526Z,1015.586365
2022-09-18T10:41:20.718Z,1015.584412
2022-09-18T10:42:22.254Z,1015.512939
2022-09-18T10:43:18.463Z,1015.535828
2022-09-18T10:45:13.707Z,1015.524658
2022-09-18T10:46:12.150Z,1015.498901
2022-09-18T10:47:06.766Z,1015.524475
2022-09-18T10:48:07.437Z,1015.519409
2022-09-18T10:49:02.883Z,1015.622131
2022-09-18T10:50:04.463Z,1015.461914
2022-09-18T10:50:57.012Z,1015.483765
2022-09-18T10:51:56.165Z,1015.487061
2022-09-18T10:52:51.819Z,1015.516785
2022-09-18T10:53:51.300Z,1015.493042
2022-09-18T10:55:53.867Z,1015.563904
2022-09-18T10:55:56.100Z,1015.563904
2022-09-18T10:56:49.672Z,1015.636475
2022-09-18T10:57:43.901Z,1015.547913
2022-09-18T10:58:45.427Z,1015.532043
2022-09-18T10:59:37.189Z,1015.574829
2022-09-18T11:00:38.851Z,1015.489258
2022-09-18T11:01:31.439Z,1015.465271
2022-09-18T11:02:33.148Z,1015.452515
2022-09-18T11:03:25.786Z,1015.452515
2022-09-18T11:05:21.446Z,1015.418152
2022-09-18T11:06:24.666Z,1015.429077
2022-09-18T11:07:16.916Z,1015.386292
2022-09-18T11:08:15.765Z,1015.424072
2022-09-18T11:10:07.742Z,1015.429077
2022-09-18T11:11:08.955Z,1015.362061
2022-09-18T11:12:03.364Z,1015.381409
2022-09-18T11:13:00.612Z,1015.404724
2022-09-18T11:14:00.377Z,1015.413208
2022-09-18T11:15:53.071Z,1015.337402
2022-09-18T11:16:51.767Z,1015.4021
2022-09-18T11:17:51.254Z,1015.366882
2022-09-18T11:18:48.705Z,1015.420715
2022-09-18T11:19:40.663Z,1015.319763
2022-09-18T11:20:47.802Z,1015.335754
2022-09-18T11:21:39.685Z,1015.290039
2022-09-18T11:22:40.424Z,1015.305969
2022-09-18T11:23:34.863Z,1015.286865
2022-09-18T11:24:31.532Z,1015.375671
2022-09-18T11:25:33.471Z,1015.340576
2022-09-18T11:26:25.868Z,1015.429382
2022-09-18T11:27:50.390Z,1015.321899
2022-09-18T11:28:30.156Z,1015.388428
2022-09-18T11:29:28.106Z,1015.352417
2022-09-18T11:30:28.030Z,1015.352417
2022-09-18T11:31:24.445Z,1015.282837
2022-09-18T11:32:23.807Z,1015.293762
2022-09-18T11:33:21.737Z,1015.317505
2022-09-18T11:35:15.586Z,1015.314697
2022-09-18T11:36:16.580Z,1015.314697
2022-09-18T11:37:12.012Z,1015.314697
2022-09-18T11:38:12.641Z,1015.360413
2022-09-18T11:39:07.954Z,1015.34436
2022-09-18T11:40:08.200Z,1015.244873
2022-09-18T11:41:04.440Z,1015.317505
2022-09-18T11:42:07.162Z,1015.293762
2022-09-18T11:42:59.895Z,1015.282837
2022-09-18T11:43:59.000Z,1015.290527
2022-09-18T11:45:53.634Z,1015.260925
2022-09-18T11:46:54.443Z,1015.270142
2022-09-18T11:47:50.093Z,1015.359253
2022-09-18T11:48:49.998Z,1015.281067
2022-09-18T11:50:45.783Z,1015.307922
2022-09-18T11:51:44.054Z,1015.361694
2022-09-18T11:52:43.033Z,1015.300476
2022-09-18T11:53:44.494Z,1015.323853
2022-09-18T11:54:42.905Z,1015.235596